Time;durP1;ratioP1;P1;durP2;ratioP2;P2;SDS_P1;SDS_P2;PMS_P1;PMS_P2;Temp;Humidity;BMP_temperature;BMP_pressure;BME280_temperature;BME280_humidity;BME280_pressure;Samples;Min_cycle;Max_cycle;Signal;HPM_P1;HPM_P2
2022/05/31 00:00:41;;;;;;;3.13;2.73;;;;;;;6.15;100.00;100824.88;4989686;28;20101;-80
2022/05/31 00:03:11;;;;;;;3.30;2.70;;;;;;;6.14;100.00;100828.38;4993221;28;20035;-80
2022/05/31 00:05:37;;;;;;;3.20;2.83;;;;;;;6.10;100.00;100834.47;4973801;28;20051;-81
2022/05/31 00:08:04;;;;;;;3.53;2.33;;;;;;;6.11;100.00;100837.09;4967946;28;20043;-79
2022/05/31 00:10:31;;;;;;;2.90;2.33;;;;;;;6.17;100.00;100839.72;4990434;28;20053;-80
2022/05/31 00:12:58;;;;;;;3.40;3.00;;;;;;;6.25;100.00;100846.72;4972997;28;20042;-80
2022/05/31 00:15:24;;;;;;;4.37;2.90;;;;;;;6.33;100.00;100835.34;4987758;28;20097;-79
2022/05/31 00:17:51;;;;;;;3.57;3.10;;;;;;;6.39;100.00;100832.75;4961059;28;20050;-81
2022/05/31 00:20:18;;;;;;;5.27;3.03;;;;;;;6.41;100.00;100830.97;4993749;28;20043;-80
2022/05/31 00:22:46;;;;;;;4.40;3.30;;;;;;;6.43;100.00;100834.47;4975887;28;20042;-80
2022/05/31 00:25:14;;;;;;;5.07;3.00;;;;;;;6.44;100.00;100841.47;4989770;28;20034;-81
2022/05/31 00:27:41;;;;;;;5.00;2.80;;;;;;;6.45;100.00;100839.72;4966766;28;20090;-79
2022/05/31 00:30:08;;;;;;;3.40;3.00;;;;;;;6.45;100.00;100837.09;4953327;28;20502;-78
2022/05/31 00:32:42;;;;;;;4.30;3.13;;;;;;;6.54;100.00;100842.31;4949772;28;20049;-78
2022/05/31 00:35:24;;;;;;;4.38;3.15;;;;;;;6.60;100.00;100836.19;4969996;28;20047;-80
2022/05/31 00:37:52;;;;;;;5.07;2.83;;;;;;;6.56;100.00;100837.06;4993254;28;20038;-80
2022/05/31 00:40:20;;;;;;;3.17;2.57;;;;;;;6.55;100.00;100836.19;4990830;28;20070;-80
2022/05/31 00:42:49;;;;;;;4.13;3.37;;;;;;;6.59;100.00;100837.09;4976235;28;20050;-79
2022/05/31 00:45:16;;;;;;;4.93;3.10;;;;;;;6.63;100.00;100837.06;4986312;28;20125;-80
2022/05/31 00:47:44;;;;;;;4.63;3.33;;;;;;;6.63;100.00;100842.31;4967633;28;20038;-80
2022/05/31 00:50:22;;;;;;;3.70;3.13;;;;;;;6.66;100.00;100841.44;4986818;28;20039;-80
2022/05/31 00:52:51;;;;;;;4.00;2.80;;;;;;;6.64;100.00;100840.56;4983882;28;20039;-80
2022/05/31 00:55:26;;;;;;;4.40;3.23;;;;;;;6.69;100.00;100831.81;4970786;28;20177;-80
2022/05/31 00:58:23;;;;;;;4.33;3.17;;;;;;;6.68;100.00;100837.94;4975030;28;20141;-80
2022/05/31 01:00:52;;;;;;;4.53;3.40;;;;;;;6.68;100.00;100837.06;4976215;28;20070;-78
2022/05/31 01:03:20;;;;;;;4.37;3.17;;;;;;;6.70;100.00;100843.19;4980091;28;20145;-81
2022/05/31 01:05:47;;;;;;;6.93;3.23;;;;;;;6.83;100.00;100839.66;4984560;28;20046;-79
2022/05/31 01:08:14;;;;;;;3.53;2.80;;;;;;;6.86;100.00;100839.66;4972881;28;20053;-79
2022/05/31 01:10:42;;;;;;;4.73;3.00;;;;;;;6.86;100.00;100841.41;4988179;28;20521;-80
2022/05/31 01:13:16;;;;;;;4.43;3.03;;;;;;;6.87;100.00;100840.53;4987163;28;20046;-78
2022/05/31 01:15:44;;;;;;;5.00;3.33;;;;;;;6.89;100.00;100829.13;4980121;28;20481;-78
2022/05/31 01:18:12;;;;;;;5.20;3.77;;;;;;;6.92;100.00;100829.13;4971874;28;20472;-80
2022/05/31 01:20:39;;;;;;;6.03;3.80;;;;;;;6.97;100.00;100832.59;4973108;28;20047;-79
2022/05/31 01:23:17;;;;;;;5.93;3.30;;;;;;;6.98;100.00;100829.13;4972858;28;20057;-80
2022/05/31 01:26:11;;;;;;;5.23;3.93;;;;;;;6.95;100.00;100839.63;4963407;28;20046;-79
2022/05/31 01:28:46;;;;;;;5.37;2.97;;;;;;;6.90;100.00;100837.91;4985776;28;20046;-79
2022/05/31 01:31:25;;;;;;;3.60;2.93;;;;;;;6.91;100.00;100831.78;4986716;28;20293;-79
2022/05/31 01:34:00;;;;;;;4.83;3.33;;;;;;;6.89;100.00;100831.75;4951915;28;20518;-80
2022/05/31 01:36:34;;;;;;;4.10;2.73;;;;;;;6.86;100.00;100828.25;4990247;28;20515;-80
2022/05/31 01:39:06;;;;;;;6.93;3.30;;;;;;;6.86;100.00;100829.13;4984230;28;20050;-79
2022/05/31 01:41:56;;;;;;;4.33;3.07;;;;;;;6.89;100.00;100823.88;4967530;28;20042;-80
2022/05/31 01:44:26;;;;;;;4.63;2.97;;;;;;;6.89;100.00;100823.88;4962920;28;20519;-79
2022/05/31 01:46:55;;;;;;;4.27;3.10;;;;;;;6.89;100.00;100841.38;4959510;28;20046;-79
2022/05/31 01:49:22;;;;;;;4.20;3.23;;;;;;;6.92;100.00;100834.38;4972007;28;20046;-78
2022/05/31 01:51:49;;;;;;;6.43;3.70;;;;;;;6.98;100.00;100829.13;4974332;28;20043;-78
2022/05/31 01:54:17;;;;;;;5.23;4.00;;;;;;;7.00;100.00;100829.13;4957406;28;20034;-80
2022/05/31 01:56:46;;;;;;;3.77;3.20;;;;;;;7.00;100.00;100829.97;4963028;28;20043;-79
2022/05/31 01:59:13;;;;;;;3.93;3.53;;;;;;;7.05;100.00;100828.19;4986462;28;20133;-80
2022/05/31 02:01:40;;;;;;;5.33;3.80;;;;;;;7.09;100.00;100820.31;4989088;28;20042;-79
2022/05/31 02:04:07;;;;;;;4.97;3.10;;;;;;;7.11;100.00;100832.56;4977530;28;20105;-79
2022/05/31 02:06:38;;;;;;;5.17;3.20;;;;;;;7.15;100.00;100829.06;4978109;28;20046;-79
2022/05/31 02:09:07;;;;;;;3.60;2.90;;;;;;;7.15;100.00;100822.94;4970492;28;20109;-79
2022/05/31 02:11:34;;;;;;;4.40;3.90;;;;;;;7.17;100.00;100826.44;4970149;28;20048;-79
2022/05/31 02:14:02;;;;;;;3.67;2.83;;;;;;;7.14;100.00;100822.03;4982745;28;20038;-79
2022/05/31 02:16:29;;;;;;;4.03;3.60;;;;;;;7.13;100.00;100820.28;4975185;28;20406;-79
2022/05/31 02:21:41;;;;;;;4.53;3.57;;;;;;;7.17;100.00;100818.53;4996507;28;20517;-80
2022/05/31 02:24:13;;;;;;;4.87;3.73;;;;;;;7.19;100.00;100822.91;4991059;28;20047;-79
2022/05/31 02:26:41;;;;;;;4.10;3.00;;;;;;;7.22;100.00;100824.63;4989807;28;20216;-79
2022/05/31 02:29:09;;;;;;;4.80;3.33;;;;;;;7.24;100.00;100820.28;4992738;28;20050;-78
2022/05/31 02:31:36;;;;;;;5.23;3.77;;;;;;;7.25;100.00;100820.25;4966930;28;20053;-78
2022/05/31 02:34:03;;;;;;;4.47;3.30;;;;;;;7.26;100.00;100824.63;4968662;28;20051;-79
2022/05/31 02:36:30;;;;;;;4.77;3.80;;;;;;;7.29;100.00;100824.59;4977143;28;20046;-78
2022/05/31 02:38:57;;;;;;;7.77;4.20;;;;;;;7.32;100.00;100834.25;4980359;28;20050;-78
2022/05/31 02:41:24;;;;;;;4.67;3.67;;;;;;;7.29;100.00;100827.22;4969263;28;20385;-79
2022/05/31 02:43:50;;;;;;;5.43;3.53;;;;;;;7.37;100.00;100837.72;4955046;28;20069;-79
2022/05/31 02:46:17;;;;;;;4.00;3.60;;;;;;;7.34;100.00;100840.38;4985733;28;20396;-79
2022/05/31 02:48:44;;;;;;;6.73;3.70;;;;;;;7.36;100.00;100835.97;4993697;28;20141;-79
2022/05/31 02:51:10;;;;;;;5.07;3.87;;;;;;;7.38;100.00;100834.19;4990058;28;20097;-79
2022/05/31 02:53:37;;;;;;;4.73;3.60;;;;;;;7.39;100.00;100840.31;4991263;28;20038;-79
2022/05/31 02:56:04;;;;;;;4.50;3.80;;;;;;;7.39;100.00;100827.19;4982096;28;20047;-78
2022/05/31 02:58:31;;;;;;;5.37;3.50;;;;;;;7.36;100.00;100835.97;5009643;28;20042;-79
2022/05/31 03:00:57;;;;;;;4.63;3.30;;;;;;;7.38;100.00;100833.31;4964118;28;20049;-80
2022/05/31 03:03:24;;;;;;;5.00;3.73;;;;;;;7.37;100.00;100835.09;4983360;28;20050;-80
2022/05/31 03:05:51;;;;;;;4.60;3.50;;;;;;;7.38;100.00;100835.97;4996543;28;20042;-80
2022/05/31 03:08:18;;;;;;;4.60;3.83;;;;;;;7.47;100.00;100826.25;4986508;28;20439;-80
2022/05/31 03:10:49;;;;;;;5.13;3.60;;;;;;;7.49;100.00;100826.28;5005461;28;20076;-79
2022/05/31 03:13:21;;;;;;;4.30;3.80;;;;;;;7.47;100.00;100828.91;4963680;28;20042;-80
2022/05/31 03:15:48;;;;;;;4.70;3.60;;;;;;;7.48;100.00;100822.78;4981451;28;20048;-81
2022/05/31 03:18:19;;;;;;;4.20;3.57;;;;;;;7.52;100.00;100823.63;5007612;28;20106;-81
2022/05/31 03:20:50;;;;;;;5.20;3.60;;;;;;;7.53;100.00;100826.25;4996083;28;20046;-80
2022/05/31 03:23:21;;;;;;;4.67;3.23;;;;;;;7.53;100.00;100826.25;4981633;28;20514;-80
2022/05/31 03:25:49;;;;;;;4.27;3.30;;;;;;;7.57;100.00;100829.75;4993871;28;20102;-79
2022/05/31 03:28:17;;;;;;;5.20;3.20;;;;;;;7.58;100.00;100828.88;4980584;28;20696;-79
2022/05/31 03:30:44;;;;;;;5.47;3.60;;;;;;;7.58;100.00;100827.09;4993657;28;20045;-79
2022/05/31 03:33:11;;;;;;;4.40;3.00;;;;;;;7.62;100.00;100834.06;4981283;28;20451;-80
2022/05/31 03:35:38;;;;;;;4.07;3.53;;;;;;;7.64;100.00;100831.44;4976326;28;20054;-80
2022/05/31 03:38:05;;;;;;;4.27;3.27;;;;;;;7.68;100.00;100838.44;4965063;28;20507;-80
2022/05/31 03:43:17;;;;;;;4.50;3.27;;;;;;;7.75;100.00;100839.28;4996878;28;20055;-79
2022/05/31 03:45:44;;;;;;;6.23;3.90;;;;;;;7.82;100.00;100846.25;4987115;28;20492;-80
2022/05/31 03:48:11;;;;;;;4.07;3.30;;;;;;;7.83;100.00;100840.97;4972149;28;20045;-80
2022/05/31 03:50:38;;;;;;;5.17;3.83;;;;;;;7.87;100.00;100839.19;4990244;28;20080;-81
2022/05/31 03:53:07;;;;;;;4.00;3.03;;;;;;;7.88;100.00;100844.44;4985327;28;20053;-80
2022/05/31 03:55:42;;;;;;;5.43;3.50;;;;;;;7.93;100.00;100833.91;4973730;28;20050;-80
2022/05/31 03:58:09;;;;;;;5.50;4.03;;;;;;;7.96;100.00;100843.50;5053372;23;20037;-82
2022/05/31 04:00:36;;;;;;;5.20;3.70;;;;;;;7.96;100.00;100839.13;5016214;28;20452;-82
2022/05/31 04:03:03;;;;;;;5.27;3.90;;;;;;;8.07;100.00;100839.03;5017803;28;20052;-83
2022/05/31 04:05:30;;;;;;;4.57;3.50;;;;;;;8.09;100.00;100846.06;5016535;28;20124;-82
2022/05/31 04:08:02;;;;;;;5.00;3.23;;;;;;;8.18;100.00;100848.63;5009005;28;20756;-83
2022/05/31 04:10:29;;;;;;;4.77;3.40;;;;;;;8.19;100.00;100847.72;4995283;28;20056;-82
2022/05/31 04:12:56;;;;;;;4.13;3.20;;;;;;;8.25;100.00;100853.84;4998500;28;20041;-82
2022/05/31 04:15:23;;;;;;;5.47;3.47;;;;;;;8.34;100.00;100851.13;4997506;28;20048;-82
2022/05/31 04:17:49;;;;;;;3.90;3.00;;;;;;;8.46;100.00;100846.66;4992513;28;20037;-83
2022/05/31 04:20:16;;;;;;;3.15;2.63;;;;;;;8.64;100.00;100855.28;5005330;28;20044;-82
2022/05/31 04:22:42;;;;;;;3.92;3.30;;;;;;;8.75;100.00;100848.16;5028012;28;20056;-81
2022/05/31 04:25:09;;;;;;;4.90;3.50;;;;;;;8.84;100.00;100844.56;5009779;28;20037;-82
2022/05/31 04:27:36;;;;;;;4.78;3.97;;;;;;;8.89;100.00;100840.09;4999589;28;20556;-81
2022/05/31 04:30:03;;;;;;;4.00;3.35;;;;;;;9.01;100.00;100850.53;5008020;28;20045;-81
2022/05/31 04:32:29;;;;;;;4.07;3.20;;;;;;;9.19;100.00;100847.66;5017155;28;20037;-83
2022/05/31 04:34:56;;;;;;;5.95;4.18;;;;;;;9.41;100.00;100847.38;5034805;28;20041;-81
2022/05/31 04:37:23;;;;;;;4.45;3.10;;;;;;;9.52;100.00;100843.75;5016501;28;20048;-82
2022/05/31 04:39:50;;;;;;;6.40;3.58;;;;;;;9.70;100.00;100849.66;5024851;28;20068;-84
2022/05/31 04:42:20;;;;;;;4.68;3.08;;;;;;;9.77;100.00;100843.41;5027037;28;20045;-82
2022/05/31 04:44:47;;;;;;;3.72;2.88;;;;;;;9.91;100.00;100845.81;5001060;28;20044;-82
2022/05/31 04:47:14;;;;;;;5.40;3.17;;;;;;;9.97;100.00;100849.25;5030612;28;20045;-81
2022/05/31 04:49:40;;;;;;;3.22;2.78;;;;;;;10.04;100.00;100852.69;5005168;28;20033;-82
2022/05/31 04:52:07;;;;;;;5.28;3.40;;;;;;;10.08;100.00;100854.34;5021626;28;20053;-81
2022/05/31 04:54:34;;;;;;;3.10;2.80;;;;;;;10.15;100.00;100862.16;5032780;28;20049;-82
2022/05/31 04:57:00;;;;;;;6.97;2.83;;;;;;;10.28;100.00;100862.03;5023720;28;20041;-84
2022/05/31 04:59:27;;;;;;;4.18;2.97;;;;;;;10.43;100.00;100859.13;5011678;28;20041;-82
2022/05/31 05:01:54;;;;;;;3.30;2.88;;;;;;;10.62;100.00;100862.34;4986700;28;20050;-82
2022/05/31 05:04:21;;;;;;;3.65;2.90;;;;;;;10.76;100.00;100862.06;4979232;28;20046;-82
2022/05/31 05:06:48;;;;;;;4.93;2.95;;;;;;;10.86;100.00;100856.59;5003251;28;20107;-82
2022/05/31 05:09:16;;;;;;;5.72;3.00;;;;;;;10.94;100.00;100859.13;4981264;28;20137;-81
2022/05/31 05:11:49;;;;;;;5.78;2.70;;;;;;;10.94;100.00;100849.41;4991982;28;20041;-82
2022/05/31 05:14:16;;;;;;;3.25;2.42;;;;;;;10.92;100.00;100860.88;4980609;28;20069;-81
2022/05/31 05:16:43;;;;;;;4.53;2.83;;;;;;;10.98;100.00;100851.06;5014146;28;20046;-82
2022/05/31 05:19:13;;;;;;;5.05;2.63;;;;;;;11.05;100.00;100850.97;4981327;28;20045;-81
2022/05/31 05:21:40;;;;;;;3.47;2.22;;;;;;;11.16;100.00;100844.56;5007829;28;20487;-82
2022/05/31 05:24:07;;;;;;;4.60;2.55;;;;;;;11.23;100.00;100845.31;5010681;28;20076;-82
2022/05/31 05:26:33;;;;;;;2.70;2.20;;;;;;;11.35;100.00;100837.16;4968642;28;20589;-83
2022/05/31 05:31:46;;;;;;;3.55;2.53;;;;;;;11.74;98.00;100843.31;4999408;28;20037;-82
2022/05/31 05:34:13;;;;;;;2.80;2.03;;;;;;;11.86;96.05;100851.97;4979864;28;20052;-82
2022/05/31 05:36:40;;;;;;;3.83;2.20;;;;;;;11.96;95.58;100853.47;4964741;28;20037;-83
2022/05/31 05:39:10;;;;;;;3.83;2.42;;;;;;;12.17;93.13;100850.31;4980451;28;20057;-82
2022/05/31 05:41:40;;;;;;;3.10;2.15;;;;;;;12.23;90.14;100851.94;4982968;28;20136;-81
2022/05/31 05:44:08;;;;;;;4.13;2.13;;;;;;;12.18;91.62;100854.69;4983970;28;20046;-82
2022/05/31 05:46:35;;;;;;;2.70;2.13;;;;;;;12.28;90.41;100856.25;5002124;28;20115;-81
2022/05/31 05:49:01;;;;;;;3.75;2.47;;;;;;;12.41;89.52;100856.78;4997273;28;20107;-81
2022/05/31 05:51:30;;;;;;;4.68;2.55;;;;;;;12.42;87.88;100852.38;4996341;28;20563;-82
2022/05/31 05:53:57;;;;;;;3.78;2.28;;;;;;;12.44;88.13;100855.84;4995666;28;20046;-81
2022/05/31 05:56:25;;;;;;;2.97;1.95;;;;;;;12.60;86.90;100858.06;5011504;28;20052;-81
2022/05/31 05:58:52;;;;;;;4.43;2.50;;;;;;;12.63;86.15;100863.31;4999093;28;20047;-81
2022/05/31 06:01:42;;;;;;;3.92;2.10;;;;;;;12.61;86.36;100862.47;5013088;28;20052;-81
2022/05/31 06:04:33;;;;;;;3.88;1.75;;;;;;;12.73;85.86;100861.28;5015338;28;20482;-79
2022/05/31 06:07:10;;;;;;;2.35;1.95;;;;;;;12.74;85.68;100867.44;5031366;28;20646;-84
2022/05/31 06:09:38;;;;;;;3.78;2.08;;;;;;;12.81;83.38;100866.38;5014790;28;20051;-81
2022/05/31 06:12:08;;;;;;;3.35;2.25;;;;;;;12.81;83.98;100867.25;5151180;23;20955;-84
2022/05/31 06:14:38;;;;;;;3.05;1.95;;;;;;;12.87;84.02;100871.53;5018710;23;20051;-84
2022/05/31 06:17:08;;;;;;;3.40;2.10;;;;;;;12.82;82.74;100868.13;5030355;23;20042;-83
2022/05/31 06:19:42;;;;;;;4.03;1.90;;;;;;;12.95;82.78;100872.19;5002633;28;20044;-84
2022/05/31 06:22:09;;;;;;;5.18;2.75;;;;;;;13.14;79.50;100865.47;5000185;28;20056;-83
2022/05/31 06:24:38;;;;;;;6.78;2.30;;;;;;;13.28;80.11;100867.75;5022060;28;20094;-83
2022/05/31 06:27:05;;;;;;;40.90;6.93;;;;;;;13.21;79.88;100875.03;4979833;28;20045;-81
2022/05/31 06:29:32;;;;;;;3.67;2.30;;;;;;;13.32;78.65;100872.06;4983266;28;20065;-84
2022/05/31 06:31:59;;;;;;;3.60;2.20;;;;;;;13.38;76.36;100868.38;4988708;28;20077;-82
2022/05/31 06:34:28;;;;;;;2.65;1.80;;;;;;;13.43;77.06;100871.75;4998956;28;20154;-83
2022/05/31 06:37:03;;;;;;;2.97;1.92;;;;;;;13.48;78.39;100870.72;5012864;28;20502;-84
2022/05/31 06:39:29;;;;;;;2.53;1.77;;;;;;;13.66;77.08;100868.44;5000202;28;20084;-84
2022/05/31 06:41:56;;;;;;;3.50;2.58;;;;;;;13.88;77.34;100864.22;5002663;28;20048;-85
2022/05/31 06:44:23;;;;;;;4.55;1.77;;;;;;;14.07;76.83;100867.19;5009551;28;20584;-83
2022/05/31 06:46:50;;;;;;;3.00;1.83;;;;;;;14.19;74.35;100868.56;5019656;28;20037;-84
2022/05/31 06:49:17;;;;;;;3.42;2.00;;;;;;;14.32;71.27;100869.91;5022031;28;20049;-85
2022/05/31 06:57:15;;;;;;;4.05;2.17;;;;;;;14.61;70.30;100877.81;5021779;28;20108;-84
2022/05/31 06:59:42;;;;;;;2.60;1.50;;;;;;;14.54;70.63;100875.41;4998357;28;20399;-83
2022/05/31 07:02:11;;;;;;;2.72;1.50;;;;;;;14.85;68.38;100877.91;5019038;28;20117;-84
2022/05/31 07:04:38;;;;;;;1.98;1.50;;;;;;;15.56;67.04;100866.47;5022221;28;20057;-83
2022/05/31 07:07:07;;;;;;;3.88;1.73;;;;;;;16.11;60.89;100871.47;5031522;28;20045;-82
2022/05/31 07:09:34;;;;;;;3.20;1.70;;;;;;;15.99;61.22;100871.03;5009697;28;20041;-83
2022/05/31 07:12:01;;;;;;;2.42;1.60;;;;;;;16.32;59.69;100874.16;5009655;28;20045;-83
2022/05/31 07:14:29;;;;;;;5.20;1.45;;;;;;;16.78;56.98;100861.56;5002850;28;20045;-83
2022/05/31 07:16:57;;;;;;;4.18;1.50;;;;;;;17.03;54.08;100860.50;5025011;28;20113;-84
2022/05/31 07:19:24;;;;;;;2.35;1.35;;;;;;;17.32;54.32;100865.44;5001850;28;20218;-82
2022/05/31 07:21:51;;;;;;;3.28;1.67;;;;;;;17.37;53.41;100863.41;5002970;28;20052;-82
2022/05/31 07:24:18;;;;;;;2.05;1.30;;;;;;;17.26;53.84;100864.84;5012028;28;20048;-83
2022/05/31 07:26:48;;;;;;;2.63;1.40;;;;;;;17.58;53.28;100852.69;5029703;28;20092;-82
2022/05/31 07:29:15;;;;;;;38.63;6.32;;;;;;;17.63;51.01;100853.31;5000824;28;20510;-83
2022/05/31 07:31:44;;;;;;;11.70;3.05;;;;;;;18.05;51.40;100863.81;5009338;28;20041;-83
2022/05/31 07:34:31;;;;;;;3.72;1.40;;;;;;;18.50;52.66;100857.19;5028644;28;20057;-82
2022/05/31 07:36:58;;;;;;;1.98;1.13;;;;;;;18.69;50.17;100859.81;4994532;28;20044;-83
2022/05/31 07:39:24;;;;;;;8.85;1.90;;;;;;;18.57;50.19;100853.22;4982104;28;20111;-83
2022/05/31 07:41:54;;;;;;;2.50;1.30;;;;;;;18.42;47.81;100860.22;4984535;28;20045;-82
2022/05/31 07:44:21;;;;;;;1.98;1.40;;;;;;;18.25;49.56;100853.03;4995936;28;20053;-82
2022/05/31 07:46:49;;;;;;;264.63;41.70;;;;;;;18.05;50.38;100850.47;5007123;28;20041;-85
2022/05/31 07:49:15;;;;;;;3.45;1.77;;;;;;;17.99;50.97;100854.31;5018920;28;20064;-82
2022/05/31 07:51:43;;;;;;;2.28;1.40;;;;;;;18.27;50.20;100851.16;5018733;28;20061;-83
2022/05/31 07:54:10;;;;;;;20.73;3.50;;;;;;;18.75;48.14;100856.81;4978649;28;20486;-83
2022/05/31 07:56:37;;;;;;;4.85;1.77;;;;;;;19.04;46.66;100853.50;5000290;28;20073;-81
2022/05/31 07:59:04;;;;;;;1.77;1.27;;;;;;;19.14;46.12;100845.84;4981988;28;20514;-82
2022/05/31 08:01:31;;;;;;;2.20;1.50;;;;;;;19.16;45.27;100851.09;4984772;28;20037;-81
2022/05/31 08:03:58;;;;;;;5.05;1.52;;;;;;;19.32;47.03;100849.34;4993314;28;20044;-81
2022/05/31 08:06:30;;;;;;;3.33;1.52;;;;;;;19.57;46.24;100844.41;4998992;28;20045;-81
2022/05/31 08:08:57;;;;;;;1.95;1.30;;;;;;;19.50;45.55;100842.13;5014334;28;20049;-82
2022/05/31 08:11:29;;;;;;;1.98;1.23;;;;;;;19.75;45.07;100847.03;4990292;28;20037;-82
2022/05/31 08:13:56;;;;;;;4.10;2.17;;;;;;;19.49;45.39;100845.75;5014873;28;20045;-80
2022/05/31 08:16:25;;;;;;;2.03;1.20;;;;;;;19.65;47.08;100852.03;4998489;28;20045;-81
2022/05/31 08:18:53;;;;;;;3.33;2.03;;;;;;;19.40;45.39;100850.66;5012812;28;20108;-81
2022/05/31 08:21:27;;;;;;;3.05;1.70;;;;;;;18.95;46.58;100843.28;4992797;28;20104;-83
2022/05/31 08:23:56;;;;;;;3.85;1.50;;;;;;;18.79;47.74;100843.19;4979700;28;20054;-81
2022/05/31 08:26:24;;;;;;;2.70;1.30;;;;;;;19.05;45.47;100836.47;5005390;28;20049;-81
2022/05/31 08:28:51;;;;;;;2.05;1.17;;;;;;;19.14;45.99;100832.44;5017260;28;20050;-81
2022/05/31 08:31:23;;;;;;;2.03;1.35;;;;;;;20.00;45.69;100842.03;4985748;28;20372;-83
2022/05/31 08:33:50;;;;;;;2.38;1.50;;;;;;;20.54;42.18;100838.97;4997439;28;20057;-82
2022/05/31 08:36:17;;;;;;;2.53;1.80;;;;;;;20.19;44.18;100839.19;4994837;28;20038;-82
2022/05/31 08:38:43;;;;;;;2.78;1.50;;;;;;;19.98;42.33;100843.06;5001860;28;20037;-83
2022/05/31 08:41:27;;;;;;;42.40;5.78;;;;;;;20.03;44.09;100841.88;5002838;28;20034;-82
2022/05/31 08:44:10;;;;;;;18.45;3.95;;;;;;;20.04;43.82;100838.22;4986790;28;20045;-83
2022/05/31 08:46:50;;;;;;;1.35;1.23;;;;;;;19.65;44.01;100836.81;5000739;28;20095;-82
2022/05/31 08:53:13;;;;;;;2.47;1.60;;;;;;;20.03;39.53;100825.78;4996896;28;20058;-84
2022/05/31 08:58:55;;;;;;;2.75;1.55;;;;;;;19.75;40.80;100825.59;4999208;28;20090;-85
2022/05/31 09:01:34;;;;;;;5.00;1.45;;;;;;;19.71;39.94;100822.22;4996978;28;20030;-83
2022/05/31 09:04:12;;;;;;;2.30;1.30;;;;;;;19.52;40.71;100817.00;5012767;28;20050;-83
2022/05/31 09:06:48;;;;;;;2.15;1.42;;;;;;;19.30;40.81;100811.94;4995308;28;20426;-82
2022/05/31 09:09:38;;;;;;;2.85;1.45;;;;;;;19.32;41.97;100817.19;4991815;28;20479;-83
2022/05/31 09:12:21;;;;;;;2.47;1.40;;;;;;;18.76;43.36;100818.41;5002422;28;20285;-82
2022/05/31 09:15:07;;;;;;;1.63;1.20;;;;;;;19.26;43.69;100806.84;5010432;28;20626;-82
2022/05/31 09:17:53;;;;;;;3.45;1.70;;;;;;;20.02;41.14;100807.97;4976079;28;20042;-83
2022/05/31 09:20:53;;;;;;;2.85;1.45;;;;;;;20.59;40.62;100802.81;4999590;28;20038;-83
2022/05/31 09:23:25;;;;;;;2.10;1.40;;;;;;;20.48;41.98;100805.28;4971312;28;20080;-84
2022/05/31 09:26:17;;;;;;;3.38;1.70;;;;;;;21.13;40.20;100805.81;4994998;28;20124;-82
2022/05/31 09:28:49;;;;;;;2.03;1.70;;;;;;;21.57;38.16;100799.47;5011172;28;20053;-83
2022/05/31 09:31:40;;;;;;;3.28;1.60;;;;;;;21.26;38.50;100798.69;4980587;28;20068;-81
2022/05/31 09:34:28;;;;;;;2.33;1.65;;;;;;;21.05;39.44;100805.41;4995384;28;20072;-83
2022/05/31 09:37:10;;;;;;;2.92;1.23;;;;;;;20.46;40.09;100805.38;5012728;28;20056;-82
2022/05/31 09:39:46;;;;;;;1.88;1.35;;;;;;;20.12;40.54;100813.66;5007379;28;20054;-81
2022/05/31 09:42:19;;;;;;;3.90;1.50;;;;;;;19.65;41.37;100804.66;5029004;28;20038;-82
2022/05/31 09:45:02;;;;;;;1.55;1.27;;;;;;;19.53;42.89;100799.97;4972311;28;20048;-85
2022/05/31 09:47:29;;;;;;;2.75;1.30;;;;;;;19.00;42.31;100806.44;5012477;28;20045;-84
2022/05/31 09:49:55;;;;;;;2.85;1.63;;;;;;;18.91;43.90;100795.31;4995903;28;20501;-85
2022/05/31 09:52:36;;;;;;;3.50;1.80;;;;;;;19.68;41.54;100788.41;4996792;28;20046;-85
2022/05/31 09:58:08;;;;;;;2.65;1.73;;;;;;;20.69;37.00;100770.94;4998257;28;20033;-84
2022/05/31 10:00:36;;;;;;;299.83;47.17;;;;;;;20.69;37.90;100773.63;5001035;28;20049;-83
2022/05/31 10:03:12;;;;;;;3.15;1.50;;;;;;;20.59;37.47;100775.97;4982487;28;20520;-83
2022/05/31 10:05:41;;;;;;;2.65;1.10;;;;;;;20.40;37.82;100783.38;5029240;28;20151;-84
2022/05/31 10:08:32;;;;;;;2.10;1.10;;;;;;;20.04;38.21;100778.34;4992083;28;20068;-83
2022/05/31 10:11:04;;;;;;;1.67;1.13;;;;;;;19.68;38.65;100775.03;5010252;28;20041;-84
2022/05/31 10:13:37;;;;;;;4.50;1.60;;;;;;;19.45;40.47;100777.22;4983083;28;20099;-84
2022/05/31 10:16:39;;;;;;;;;;;;;;;19.35;41.33;100776.88;4973359;28;1024321;-84
2022/05/31 10:19:11;;;;;;;1.92;1.30;;;;;;;19.48;41.95;100777.03;4958158;28;19934;-84
2022/05/31 10:21:41;;;;;;;2.78;1.10;;;;;;;19.44;41.66;100770.13;4988793;28;20045;-84
2022/05/31 10:24:27;;;;;;;2.45;1.20;;;;;;;19.53;40.56;100772.28;5007498;28;20042;-84
2022/05/31 10:27:14;;;;;;;2.47;1.58;;;;;;;19.84;40.61;100758.03;5006469;28;20046;-83
2022/05/31 10:30:20;;;;;;;2.17;1.50;;;;;;;20.31;36.30;100755.28;5019225;28;20065;-83
2022/05/31 10:32:56;;;;;;;3.72;1.83;;;;;;;20.62;35.88;100757.03;4998754;28;20058;-84
2022/05/31 10:35:29;;;;;;;3.55;1.40;;;;;;;20.86;34.84;100756.50;5018995;28;20045;-85
2022/05/31 10:38:28;;;;;;;2.80;1.35;;;;;;;21.20;35.05;100752.56;5014307;28;20045;-85
2022/05/31 10:41:01;;;;;;;1.40;1.30;;;;;;;21.38;33.94;100739.81;5003205;28;20049;-85
2022/05/31 10:43:44;;;;;;;2.70;2.00;;;;;;;21.44;33.12;100739.38;5009780;28;20042;-85
2022/05/31 10:46:19;;;;;;;2.55;1.58;;;;;;;21.44;32.17;100739.38;5010772;28;20042;-84
2022/05/31 10:48:48;;;;;;;2.25;1.45;;;;;;;21.21;33.58;100739.03;5005691;28;20075;-84
2022/05/31 10:51:32;;;;;;;1.50;1.40;;;;;;;21.13;34.19;100741.34;5012687;28;20044;-84
2022/05/31 10:54:03;;;;;;;;;;;;;;;20.98;34.13;100751.19;5009647;28;20108;-84
2022/05/31 10:57:04;;;;;;;2.25;1.10;;;;;;;21.42;31.74;100741.31;5008604;28;20149;-83
2022/05/31 10:59:56;;;;;;;1.98;1.30;;;;;;;21.84;31.48;100733.13;5012673;28;20045;-83
2022/05/31 11:02:36;;;;;;;2.83;1.55;;;;;;;22.01;29.79;100726.63;5022613;28;20065;-84
2022/05/31 11:05:12;;;;;;;2.88;1.42;;;;;;;21.58;31.84;100737.53;5006906;28;20052;-84
2022/05/31 11:11:37;;;;;;;2.47;1.25;;;;;;;21.07;33.12;100720.22;5013496;28;20061;-82
2022/05/31 11:14:25;;;;;;;3.25;1.45;;;;;;;21.33;32.62;100719.44;5006567;28;20053;-83
2022/05/31 11:17:17;;;;;;;3.88;1.90;;;;;;;21.44;31.67;100726.84;5006866;28;20065;-84
2022/05/31 11:19:52;;;;;;;2.22;1.50;;;;;;;21.83;31.57;100725.19;4995516;28;20041;-84
2022/05/31 11:22:35;;;;;;;2.22;1.58;;;;;;;22.45;30.98;100729.06;5002716;28;20462;-83
2022/05/31 11:25:34;;;;;;;2.22;1.33;;;;;;;22.48;29.50;100718.06;5001891;28;20042;-85
2022/05/31 11:28:24;;;;;;;5.47;2.05;;;;;;;22.94;28.94;100714.84;4980905;28;20053;-82
2022/05/31 11:31:13;;;;;;;2.53;1.50;;;;;;;22.28;30.07;100717.69;5016191;28;20101;-80
2022/05/31 11:34:07;;;;;;;3.95;1.38;;;;;;;21.90;29.98;100711.22;5015699;28;20050;-81
2022/05/31 11:36:49;;;;;;;2.55;1.27;;;;;;;21.14;31.08;100710.81;4995533;28;20120;-82
2022/05/31 11:39:28;;;;;;;3.75;1.92;;;;;;;21.04;32.24;100720.41;5003011;28;20073;-84
2022/05/31 11:42:17;;;;;;;2.03;1.30;;;;;;;21.10;31.38;100703.88;5011325;28;20049;-82
2022/05/31 11:44:59;;;;;;;2.17;1.20;;;;;;;22.09;31.74;100710.00;4991687;28;20045;-81
2022/05/31 11:47:32;;;;;;;3.75;1.65;;;;;;;22.67;29.32;100711.38;5037872;28;20041;-82
2022/05/31 11:50:02;;;;;;;2.85;1.42;;;;;;;22.56;29.72;100711.28;5005999;28;20094;-81
2022/05/31 11:52:53;;;;;;;3.08;1.33;;;;;;;22.05;29.86;100703.97;5016299;28;20066;-82
2022/05/31 11:55:41;;;;;;;2.58;1.60;;;;;;;22.16;31.61;100700.56;5011329;28;20048;-81
2022/05/31 11:58:18;;;;;;;12.90;2.95;;;;;;;21.87;31.94;100705.19;5012231;28;20075;-82
2022/05/31 12:01:18;;;;;;;2.53;1.42;;;;;;;21.40;31.09;100706.47;5035304;28;20045;-80
2022/05/31 12:04:08;;;;;;;1.90;1.20;;;;;;;21.15;31.76;100701.78;5014606;28;20133;-81
2022/05/31 12:06:43;;;;;;;2.08;1.48;;;;;;;20.98;32.43;100696.63;4990985;28;20414;-81
2022/05/31 12:09:31;;;;;;;3.47;1.50;;;;;;;20.64;31.95;100690.69;5000585;28;20335;-83
2022/05/31 12:12:12;;;;;;;2.80;1.52;;;;;;;20.35;32.92;100700.50;5017871;28;20092;-82
2022/05/31 12:14:44;;;;;;;2.63;1.50;;;;;;;20.22;32.63;100694.13;4997144;28;20047;-81